Time;durP1;ratioP1;P1;durP2;ratioP2;P2;SDS_P1;SDS_P2;PMS_P1;PMS_P2;Temp;Humidity;BMP_temperature;BMP_pressure;BME280_temperature;BME280_humidity;BME280_pressure;Samples;Min_cycle;Max_cycle;Signal;HPM_P1;HPM_P2
2020/12/30 00:00:06;;;;;;;11.38;4.22;;;333.10;1715.20;;;;;;5072192;28;20414;-60
2020/12/30 00:02:32;;;;;;;11.88;3.85;;;333.10;1715.20;;;;;;5072077;28;20047;-60
2020/12/30 00:04:58;;;;;;;9.10;4.18;;;333.10;1715.20;;;;;;5072049;28;20099;-57
2020/12/30 00:07:24;;;;;;;12.20;4.80;;;333.20;1689.60;;;;;;5072955;28;20036;-58
2020/12/30 00:09:50;;;;;;;12.02;5.20;;;333.10;1689.60;;;;;;5073275;28;20035;-58
2020/12/30 00:12:17;;;;;;;9.35;4.22;;;333.20;1689.60;;;;;;5072992;28;20044;-58
2020/12/30 00:14:43;;;;;;;8.75;4.47;;;333.20;1689.60;;;;;;5073700;28;20107;-58
2020/12/30 00:17:09;;;;;;;9.90;5.35;;;333.20;1689.60;;;;;;5073227;28;20020;-58
2020/12/30 00:19:35;;;;;;;10.10;4.93;;;333.20;1689.60;;;;;;5070689;28;20020;-58
2020/12/30 00:22:06;;;;;;;9.77;5.50;;;333.10;1715.20;;;;;;5073166;28;20528;-58
2020/12/30 00:24:32;;;;;;;13.85;5.95;;;333.10;1715.20;;;;;;5073698;28;20029;-58
2020/12/30 00:26:58;;;;;;;9.95;5.93;;;333.10;1715.20;;;;;;5073191;28;20051;-59
2020/12/30 00:29:24;;;;;;;8.45;6.13;;;333.00;1740.80;;;;;;5072927;28;20033;-58
2020/12/30 00:31:49;;;;;;;9.63;6.30;;;333.00;1715.20;;;;;;5072452;28;20028;-57
2020/12/30 00:34:15;;;;;;;11.23;7.00;;;333.10;1715.20;;;;;;5073050;28;20009;-57
2020/12/30 00:36:40;;;;;;;9.52;6.32;;;333.10;1715.20;;;;;;5072521;28;20024;-57
2020/12/30 00:39:07;;;;;;;11.85;6.60;;;333.00;1715.20;;;;;;5072456;28;20054;-57
2020/12/30 00:41:33;;;;;;;11.02;6.53;;;333.10;1715.20;;;;;;5072123;28;20029;-57
2020/12/30 00:43:59;;;;;;;11.73;6.20;;;333.00;1740.80;;;;;;5072820;28;20028;-58
2020/12/30 00:46:25;;;;;;;10.13;6.10;;;333.00;1740.80;;;;;;5069908;28;20032;-58
2020/12/30 00:48:51;;;;;;;13.43;6.68;;;333.00;1740.80;;;;;;5072752;28;20024;-58
2020/12/30 00:51:17;;;;;;;9.45;6.47;;;333.00;1740.80;;;;;;5072437;28;20501;-57
2020/12/30 00:53:43;;;;;;;9.43;7.05;;;333.00;1740.80;;;;;;5072863;28;20025;-58
2020/12/30 00:56:10;;;;;;;9.13;6.30;;;333.00;1740.80;;;;;;5072851;28;20035;-57
2020/12/30 00:58:36;;;;;;;13.43;6.50;;;333.00;1740.80;;;;;;5072633;28;20021;-58
2020/12/30 01:01:05;;;;;;;11.15;6.05;;;333.00;1740.80;;;;;;5072681;28;20027;-59
2020/12/30 01:03:31;;;;;;;8.85;6.00;;;332.90;1740.80;;;;;;5072705;28;20029;-58
2020/12/30 01:05:57;;;;;;;9.82;6.85;;;333.00;1766.40;;;;;;5072612;28;20044;-59
2020/12/30 01:08:23;;;;;;;9.48;6.75;;;332.80;1766.40;;;;;;5072800;28;20477;-58
2020/12/30 01:10:49;;;;;;;13.38;5.95;;;332.80;1766.40;;;;;;5072254;28;20099;-58
2020/12/30 01:13:15;;;;;;;11.07;5.75;;;332.80;1766.40;;;;;;5072513;28;20485;-59
2020/12/30 01:15:41;;;;;;;11.70;6.07;;;308.10;1766.40;;;;;;5072793;28;20382;-59
2020/12/30 01:18:07;;;;;;;11.85;5.60;;;332.80;1766.40;;;;;;5072678;28;20047;-58
2020/12/30 01:20:32;;;;;;;12.15;6.60;;;332.90;1766.40;;;;;;5072554;28;20471;-59
2020/12/30 01:22:58;;;;;;;10.52;5.70;;;332.80;1766.40;;;;;;5072347;28;20036;-59
2020/12/30 01:25:24;;;;;;;11.68;6.90;;;332.80;1766.40;;;;;;5072684;28;20062;-59
2020/12/30 01:27:49;;;;;;;12.38;6.07;;;332.80;1766.40;;;;;;5072599;28;20371;-59
2020/12/30 01:30:15;;;;;;;8.15;5.63;;;332.80;1766.40;;;;;;5072619;28;20100;-59
2020/12/30 01:32:41;;;;;;;9.52;5.15;;;332.80;1766.40;;;;;;5069670;28;20040;-59
2020/12/30 01:35:07;;;;;;;8.98;5.43;;;332.80;1766.40;;;;;;5072102;28;20440;-60
2020/12/30 01:37:32;;;;;;;9.55;5.63;;;308.10;1740.80;;;;;;5071783;28;20116;-60
2020/12/30 01:39:58;;;;;;;10.57;5.32;;;308.00;1766.40;;;;;;5071924;28;20025;-59
2020/12/30 01:42:24;;;;;;;9.00;5.47;;;307.90;1766.40;;;;;;5071147;28;20479;-59
2020/12/30 01:44:49;;;;;;;14.98;5.53;;;307.80;1792.00;;;;;;5071134;28;20028;-59
2020/12/30 01:47:17;;;;;;;9.43;5.55;;;307.80;1766.40;;;;;;5071574;28;20064;-61
2020/12/30 01:49:42;;;;;;;9.45;5.22;;;307.70;1792.00;;;;;;5071839;28;20027;-58
2020/12/30 01:52:08;;;;;;;13.57;5.63;;;307.70;1792.00;;;;;;5076282;28;20020;-58
2020/12/30 01:54:35;;;;;;;7.15;4.85;;;307.60;1792.00;;;;;;5076344;28;20048;-57
2020/12/30 01:57:04;;;;;;;12.30;6.43;;;307.60;1817.60;;;;;;5076513;28;20025;-58
2020/12/30 01:59:29;;;;;;;;;;;307.50;1792.00;;;;;;5076745;28;20029;-59
2020/12/30 02:02:03;;;;;;;7.63;5.03;;;307.50;1817.60;;;;;;5076118;28;19916;-58
2020/12/30 02:04:42;;;;;;;6.50;4.32;;;307.50;1817.60;;;;;;5076266;28;20021;-58
2020/12/30 02:07:08;;;;;;;;;;;307.50;1817.60;;;;;;5063009;28;20127;-58
2020/12/30 02:09:33;;;;;;;5.82;4.43;;;307.50;1792.00;;;;;;5076302;28;20007;-58
2020/12/30 02:12:00;;;;;;;6.85;4.40;;;307.50;1792.00;;;;;;5076331;28;20048;-59
2020/12/30 02:14:26;;;;;;;8.88;4.07;;;307.60;1792.00;;;;;;5076115;28;20021;-58
2020/12/30 02:16:53;;;;;;;5.90;3.63;;;307.60;1792.00;;;;;;5074940;28;20035;-58
2020/12/30 02:19:20;;;;;;;6.10;3.50;;;307.60;1792.00;;;;;;5074169;28;20017;-56
2020/12/30 02:21:46;;;;;;;7.07;3.38;;;307.70;1766.40;;;;;;5075814;28;20405;-56
2020/12/30 02:24:18;;;;;;;12.13;4.18;;;307.70;1766.40;;;;;;5075936;28;20035;-55
2020/12/30 02:26:43;;;;;;;6.68;3.95;;;307.80;1740.80;;;;;;5075517;28;20036;-55
2020/12/30 02:29:09;;;;;;;7.43;3.60;;;307.80;1740.80;;;;;;5075653;28;20052;-55
2020/12/30 02:31:35;;;;;;;5.65;3.13;;;307.90;1740.80;;;;;;5075567;28;20021;-55
2020/12/30 02:34:00;;;;;;;4.30;3.22;;;307.90;1740.80;;;;;;5075356;28;20036;-55
2020/12/30 02:36:26;;;;;;;4.57;3.10;;;307.90;1715.20;;;;;;5075548;28;20029;-55
2020/12/30 02:38:53;;;;;;;5.65;3.10;;;307.90;1715.20;;;;;;5075476;28;20033;-55
2020/12/30 02:41:19;;;;;;;6.63;3.42;;;307.90;1715.20;;;;;;5075224;28;20107;-55
2020/12/30 02:43:46;;;;;;;5.97;3.13;;;307.90;1715.20;;;;;;5075195;28;20020;-56
2020/12/30 02:46:12;;;;;;;5.93;3.65;;;307.80;1715.20;;;;;;5075234;28;20090;-55
2020/12/30 02:48:38;;;;;;;6.32;3.55;;;307.70;1740.80;;;;;;5075316;28;20017;-56
2020/12/30 02:51:04;;;;;;;6.00;3.03;;;307.80;1740.80;;;;;;5074948;28;20086;-55
2020/12/30 02:53:29;;;;;;;7.45;3.25;;;307.70;1740.80;;;;;;5056867;28;20044;-55
2020/12/30 02:55:55;;;;;;;6.70;2.67;;;307.60;1740.80;;;;;;5075654;28;20032;-55
2020/12/30 02:58:21;;;;;;;8.50;3.17;;;307.70;1740.80;;;;;;5074918;28;20425;-55
2020/12/30 03:00:46;;;;;;;5.57;2.65;;;307.60;1740.80;;;;;;5074962;28;20029;-56
2020/12/30 03:03:12;;;;;;;4.45;2.75;;;307.60;1740.80;;;;;;5074898;28;20059;-56
2020/12/30 03:05:38;;;;;;;4.45;2.67;;;307.50;1740.80;;;;;;5075042;28;20048;-55
2020/12/30 03:08:03;;;;;;;4.55;2.83;;;307.50;1740.80;;;;;;5074839;28;20389;-56
2020/12/30 03:10:29;;;;;;;6.90;2.60;;;307.50;1740.80;;;;;;5075434;28;20020;-56
2020/12/30 03:12:55;;;;;;;8.52;3.22;;;307.60;1740.80;;;;;;5074551;28;20415;-58
2020/12/30 03:15:20;;;;;;;5.15;2.63;;;307.50;1740.80;;;;;;5074690;28;20031;-56
2020/12/30 03:17:46;;;;;;;5.30;2.95;;;307.50;1740.80;;;;;;5074919;28;20036;-56
2020/12/30 03:20:13;;;;;;;4.65;2.60;;;307.50;1740.80;;;;;;5074622;28;20173;-56
2020/12/30 03:22:38;;;;;;;5.68;2.60;;;307.60;1740.80;;;;;;5074734;28;20029;-57
2020/12/30 03:25:04;;;;;;;5.13;2.63;;;307.50;1740.80;;;;;;5074538;28;20523;-56
2020/12/30 03:27:30;;;;;;;6.28;2.40;;;307.50;1740.80;;;;;;5074478;28;20035;-56
2020/12/30 03:29:56;;;;;;;5.68;2.83;;;307.40;1740.80;;;;;;5074888;28;20064;-56
2020/12/30 03:32:21;;;;;;;5.22;2.28;;;307.50;1740.80;;;;;;5072130;28;20047;-56
2020/12/30 03:34:47;;;;;;;4.30;1.77;;;307.40;1766.40;;;;;;5074626;28;20017;-56
2020/12/30 03:37:13;;;;;;;2.05;1.60;;;307.40;1740.80;;;;;;5074327;28;20043;-56
2020/12/30 03:39:38;;;;;;;4.45;2.35;;;307.50;1740.80;;;;;;5074324;28;20032;-56
2020/12/30 03:42:06;;;;;;;3.20;2.05;;;307.40;1740.80;;;;;;5074185;28;20024;-56
2020/12/30 03:44:32;;;;;;;3.40;1.65;;;307.40;1740.80;;;;;;5074345;28;20017;-56
2020/12/30 03:46:58;;;;;;;4.22;2.03;;;307.50;1740.80;;;;;;5074028;28;20039;-56
2020/12/30 03:49:24;;;;;;;5.70;2.60;;;307.40;1740.80;;;;;;5073788;28;20020;-56
2020/12/30 03:51:50;;;;;;;3.53;2.50;;;307.50;1715.20;;;;;;5074108;28;20374;-56
2020/12/30 03:54:15;;;;;;;3.78;2.40;;;307.40;1740.80;;;;;;5074116;28;20522;-56
2020/12/30 03:56:41;;;;;;;5.43;2.22;;;307.40;1740.80;;;;;;5074054;28;20474;-56
2020/12/30 03:59:07;;;;;;;5.22;2.67;;;307.40;1740.80;;;;;;5073930;28;20471;-56
2020/12/30 04:01:32;;;;;;;4.18;2.28;;;307.40;1715.20;;;;;;5073722;28;20032;-56
2020/12/30 04:03:58;;;;;;;9.30;2.80;;;307.40;1715.20;;;;;;5074030;28;20029;-56
2020/12/30 04:06:24;;;;;;;7.18;2.90;;;307.50;1715.20;;;;;;5073247;28;20044;-56
2020/12/30 04:08:49;;;;;;;7.82;3.40;;;307.50;1715.20;;;;;;5073886;28;20024;-56
2020/12/30 04:11:15;;;;;;;6.75;2.22;;;307.50;1715.20;;;;;;5073583;28;20024;-56
2020/12/30 04:13:40;;;;;;;8.23;3.00;;;307.60;1715.20;;;;;;5073181;28;20494;-57
2020/12/30 04:16:06;;;;;;;7.55;2.60;;;307.50;1715.20;;;;;;5073533;28;20095;-55
2020/12/30 04:18:32;;;;;;;6.32;3.03;;;307.60;1689.60;;;;;;5073491;28;20039;-56
2020/12/30 04:20:57;;;;;;;4.80;2.65;;;307.60;1689.60;;;;;;5073359;28;20120;-56
2020/12/30 04:23:23;;;;;;;4.50;2.47;;;307.60;1689.60;;;;;;5073111;28;20016;-56
2020/12/30 04:25:49;;;;;;;3.78;2.03;;;307.60;1689.60;;;;;;5073850;28;20041;-56
2020/12/30 04:28:16;;;;;;;5.30;3.10;;;307.60;1689.60;;;;;;5073570;28;20359;-56
2020/12/30 04:30:42;;;;;;;5.47;2.28;;;307.50;1689.60;;;;;;5073205;28;20029;-56
2020/12/30 04:33:11;;;;;;;5.30;2.58;;;307.60;1689.60;;;;;;5073166;28;20032;-56
2020/12/30 04:35:37;;;;;;;8.38;2.25;;;307.60;1689.60;;;;;;5073368;28;20052;-56
2020/12/30 04:38:04;;;;;;;4.40;2.20;;;307.50;1689.60;;;;;;5070173;28;20063;-56
2020/12/30 04:40:30;;;;;;;9.07;2.38;;;307.50;1689.60;;;;;;5073005;28;20016;-56
2020/12/30 04:43:02;;;;;;;6.20;2.35;;;307.50;1689.60;;;;;;5073157;28;20077;-56
2020/12/30 04:45:29;;;;;;;7.95;2.97;;;307.50;1689.60;;;;;;5072881;28;20374;-56
2020/12/30 04:47:57;;;;;;;5.15;2.58;;;307.50;1689.60;;;;;;5072957;28;20028;-56
2020/12/30 04:50:23;;;;;;;11.30;2.00;;;307.60;1689.60;;;;;;5054866;28;20386;-56
2020/12/30 04:52:49;;;;;;;6.55;2.45;;;307.50;1689.60;;;;;;5072734;28;20043;-57
2020/12/30 04:55:20;;;;;;;4.43;1.83;;;307.50;1689.60;;;;;;5073149;28;20032;-56
2020/12/30 04:58:05;;;;;;;4.47;2.25;;;307.50;1689.60;;;;;;5072716;28;20023;-55
2020/12/30 05:00:33;;;;;;;5.63;2.20;;;307.50;1689.60;;;;;;5072903;28;20428;-56
2020/12/30 05:03:06;;;;;;;3.00;2.10;;;307.50;1689.60;;;;;;5072377;28;20032;-56
2020/12/30 05:05:33;;;;;;;5.00;2.50;;;307.50;1689.60;;;;;;5072813;28;20071;-56
2020/12/30 05:07:59;;;;;;;5.72;2.28;;;307.60;1664.00;;;;;;5072683;28;20021;-56
2020/12/30 05:10:25;;;;;;;5.55;2.63;;;307.70;1664.00;;;;;;5054874;28;20032;-56
2020/12/30 05:12:55;;;;;;;5.18;2.38;;;307.70;1638.40;;;;;;5072857;28;20059;-56
2020/12/30 05:15:21;;;;;;;6.05;3.08;;;307.80;1638.40;;;;;;5072545;28;20020;-56
2020/12/30 05:17:47;;;;;;;4.55;3.00;;;307.90;1638.40;;;;;;5072440;28;20475;-56
2020/12/30 05:20:13;;;;;;;5.00;2.83;;;308.00;1612.80;;;;;;5072636;28;20028;-56
2020/12/30 05:22:39;;;;;;;7.15;3.25;;;308.00;1612.80;;;;;;5072538;28;20027;-56
2020/12/30 05:25:06;;;;;;;4.78;3.20;;;308.10;1612.80;;;;;;5072286;28;20153;-56
2020/12/30 05:27:32;;;;;;;4.57;2.55;;;308.10;1612.80;;;;;;5072481;28;20024;-55
2020/12/30 05:29:58;;;;;;;7.60;2.72;;;308.10;1612.80;;;;;;5072613;28;20060;-56
2020/12/30 05:32:25;;;;;;;5.25;2.38;;;332.80;1638.40;;;;;;5072608;28;20073;-56
2020/12/30 05:34:54;;;;;;;8.95;3.50;;;332.80;1612.80;;;;;;5072358;28;20055;-56
2020/12/30 05:37:29;;;;;;;4.45;3.17;;;332.90;1612.80;;;;;;5072394;28;20025;-56
2020/12/30 05:39:55;;;;;;;3.55;2.40;;;332.80;1612.80;;;;;;5072657;28;20028;-56
2020/12/30 05:42:21;;;;;;;4.55;2.42;;;332.80;1612.80;;;;;;5072188;28;20381;-56
2020/12/30 05:44:49;;;;;;;6.05;2.97;;;332.80;1612.80;;;;;;5072646;28;20017;-56
2020/12/30 05:47:23;;;;;;;5.28;2.78;;;332.90;1612.80;;;;;;5071502;28;20033;-56
2020/12/30 05:49:50;;;;;;;5.80;2.50;;;332.80;1612.80;;;;;;5072556;28;20023;-64
2020/12/30 05:52:21;;;;;;;5.22;2.83;;;332.80;1612.80;;;;;;5073869;28;20020;-57
2020/12/30 05:54:51;;;;;;;6.75;2.85;;;332.80;1612.80;;;;;;5059221;28;20048;-57
2020/12/30 05:57:30;;;;;;;6.50;2.53;;;332.80;1612.80;;;;;;5072353;28;20082;-57
2020/12/30 05:59:59;;;;;;;7.55;2.60;;;308.10;1587.20;;;;;;5072197;28;20481;-57
2020/12/30 06:02:27;;;;;;;9.90;3.33;;;308.10;1587.20;;;;;;5072102;28;20393;-57
2020/12/30 06:05:08;;;;;;;6.53;2.67;;;308.10;1587.20;;;;;;5072017;28;20039;-56
2020/12/30 06:07:46;;;;;;;6.32;3.03;;;332.80;1612.80;;;;;;5071962;28;20037;-57
2020/12/30 06:10:16;;;;;;;4.80;2.20;;;308.10;1587.20;;;;;;5059607;28;20120;-56
2020/12/30 06:12:48;;;;;;;8.25;2.58;;;332.80;1612.80;;;;;;5071612;28;20137;-56
2020/12/30 06:15:21;;;;;;;33.17;27.20;;;332.80;1612.80;;;;;;5059231;28;20493;-57
2020/12/30 06:17:53;;;;;;;6.13;3.92;;;332.90;1587.20;;;;;;5071805;28;20032;-57
2020/12/30 06:20:38;;;;;;;136.82;110.78;;;333.00;1587.20;;;;;;5058627;28;20020;-56
2020/12/30 06:23:08;;;;;;;20.58;18.50;;;333.00;1587.20;;;;;;5071217;28;20024;-56
2020/12/30 06:25:37;;;;;;;6.80;2.58;;;333.10;1587.20;;;;;;5069181;28;20036;-57
2020/12/30 06:28:19;;;;;;;8.95;4.65;;;333.10;1561.60;;;;;;5071419;28;20032;-57
2020/12/30 06:30:50;;;;;;;6.53;3.45;;;333.10;1561.60;;;;;;5069972;28;20028;-58
2020/12/30 06:33:16;;;;;;;5.97;3.45;;;333.10;1561.60;;;;;;5071201;28;20017;-57
2020/12/30 06:35:43;;;;;;;7.30;3.25;;;333.10;1561.60;;;;;;5071047;28;20413;-56
2020/12/30 06:38:19;;;;;;;5.47;2.80;;;333.20;1561.60;;;;;;5074817;28;20382;-56
2020/12/30 06:40:53;;;;;;;4.80;2.38;;;333.20;1561.60;;;;;;5073017;28;20104;-56
2020/12/30 06:43:46;;;;;;;9.15;3.50;;;333.20;1561.60;;;;;;5072726;28;20051;-55
2020/12/30 06:46:35;;;;;;;12.38;10.00;;;333.20;1561.60;;;;;;5071185;28;20041;-56
2020/12/30 06:49:03;;;;;;;8.93;4.38;;;333.20;1561.60;;;;;;5074949;28;20093;-56
2020/12/30 06:51:36;;;;;;;10.65;3.40;;;333.20;1561.60;;;;;;5075059;28;20423;-55
2020/12/30 06:54:02;;;;;;;5.78;3.00;;;333.30;1536.00;;;;;;5072963;28;20447;-56
2020/12/30 06:56:46;;;;;;;7.35;4.13;;;333.30;1536.00;;;;;;5074604;28;20056;-56
2020/12/30 06:59:17;;;;;;;13.95;3.97;;;333.30;1536.00;;;;;;5074660;28;20104;-57
2020/12/30 07:02:04;;;;;;;5.35;3.40;;;333.30;1536.00;;;;;;5056875;28;20029;-56
2020/12/30 07:04:31;;;;;;;7.65;3.42;;;333.30;1561.60;;;;;;5074331;28;20064;-56
2020/12/30 07:06:57;;;;;;;5.60;3.35;;;333.30;1536.00;;;;;;5074601;28;20123;-56
2020/12/30 07:09:35;;;;;;;8.93;4.65;;;333.30;1536.00;;;;;;5074154;28;20020;-56
2020/12/30 07:12:02;;;;;;;11.48;3.25;;;333.50;1536.00;;;;;;5074520;28;20458;-57
2020/12/30 07:14:29;;;;;;;8.90;3.75;;;333.50;1536.00;;;;;;5074961;28;20108;-57
2020/12/30 07:16:56;;;;;;;6.95;2.90;;;333.50;1510.40;;;;;;5074786;28;20016;-57
2020/12/30 07:19:29;;;;;;;6.35;3.08;;;333.50;1510.40;;;;;;5074846;28;20027;-57
2020/12/30 07:22:10;;;;;;;9.07;3.30;;;333.60;1510.40;;;;;;5057213;28;20119;-56
2020/12/30 07:24:39;;;;;;;9.80;4.10;;;333.60;1510.40;;;;;;5074768;28;20382;-57
2020/12/30 07:27:16;;;;;;;10.23;5.30;;;333.60;1510.40;;;;;;5074464;28;20093;-57
2020/12/30 07:29:44;;;;;;;8.57;4.00;;;333.60;1510.40;;;;;;5074440;28;20542;-58
2020/12/30 07:32:11;;;;;;;5.50;3.22;;;333.60;1510.40;;;;;;5074024;28;20025;-57
2020/12/30 07:34:41;;;;;;;11.60;5.88;;;358.40;1484.80;;;;;;5074504;28;20017;-56
2020/12/30 07:37:07;;;;;;;18.58;11.73;;;333.70;1510.40;;;;;;5072874;28;20032;-56
2020/12/30 07:39:40;;;;;;;12.15;4.88;;;333.60;1510.40;;;;;;5074130;28;20024;-56
2020/12/30 07:42:07;;;;;;;46.08;35.63;;;333.60;1510.40;;;;;;5074298;28;20024;-56
2020/12/30 07:44:33;;;;;;;29.02;21.35;;;333.50;1510.40;;;;;;5074341;28;20356;-56
2020/12/30 07:47:03;;;;;;;8.75;5.70;;;333.50;1536.00;;;;;;5073508;28;20146;-57
2020/12/30 07:49:30;;;;;;;13.00;8.23;;;333.60;1510.40;;;;;;5073242;28;20033;-56
2020/12/30 07:51:57;;;;;;;10.55;5.15;;;333.60;1510.40;;;;;;5073543;28;20115;-56
2020/12/30 07:54:24;;;;;;;15.02;7.97;;;333.70;1510.40;;;;;;5074343;28;20522;-56
2020/12/30 07:56:51;;;;;;;10.40;4.88;;;358.40;1510.40;;;;;;5055712;28;20414;-56
2020/12/30 07:59:22;;;;;;;9.23;4.68;;;358.70;1484.80;;;;;;5074103;28;20463;-57
2020/12/30 08:02:14;;;;;;;11.40;4.78;;;358.60;1484.80;;;;;;5073572;28;20075;-57
2020/12/30 08:04:41;;;;;;;8.93;4.30;;;358.70;1459.20;;;;;;5073922;28;20352;-56
2020/12/30 08:07:09;;;;;;;8.65;3.50;;;358.70;1459.20;;;;;;5072446;28;20105;-56
2020/12/30 08:09:36;;;;;;;7.00;3.80;;;358.90;1433.60;;;;;;5072714;28;20025;-56
2020/12/30 08:12:06;;;;;;;7.32;4.22;;;358.90;1433.60;;;;;;5073185;28;20273;-56
2020/12/30 08:14:34;;;;;;;7.55;3.85;;;358.90;1433.60;;;;;;5073871;28;20470;-56
2020/12/30 08:17:07;;;;;;;6.73;2.90;;;359.20;1408.00;;;;;;5073171;28;20051;-56
2020/12/30 08:19:33;;;;;;;10.68;4.05;;;384.00;1382.40;;;;;;5073225;28;20033;-56
2020/12/30 08:22:07;;;;;;;11.23;3.90;;;384.00;1382.40;;;;;;5073404;28;20477;-56
2020/12/30 08:24:36;;;;;;;5.75;3.55;;;384.20;1356.80;;;;;;5073172;28;20024;-56
2020/12/30 08:27:02;;;;;;;9.55;4.80;;;384.40;1356.80;;;;;;5073654;28;20036;-57
2020/12/30 08:29:34;;;;;;;8.35;4.00;;;384.30;1356.80;;;;;;5073240;28;20498;-56
2020/12/30 08:32:16;;;;;;;8.52;3.58;;;384.40;1356.80;;;;;;5072971;28;20036;-56
2020/12/30 08:34:50;;;;;;;7.25;3.65;;;384.50;1331.20;;;;;;5073221;28;20020;-55
2020/12/30 08:37:22;;;;;;;8.80;3.60;;;384.70;1331.20;;;;;;5073053;28;20040;-56
2020/12/30 08:40:04;;;;;;;12.02;4.15;;;384.60;1331.20;;;;;;5073139;28;20103;-57
2020/12/30 08:42:48;;;;;;;9.95;4.40;;;384.60;1331.20;;;;;;5072448;28;20409;-57
2020/12/30 08:45:28;;;;;;;12.27;4.78;;;384.60;1331.20;;;;;;5072860;28;20522;-57
2020/12/30 08:47:57;;;;;;;7.72;4.18;;;384.60;1331.20;;;;;;5072735;28;20402;-57
2020/12/30 08:50:25;;;;;;;12.20;4.80;;;384.60;1356.80;;;;;;5072711;28;20146;-57
2020/12/30 08:52:52;;;;;;;8.82;5.60;;;384.60;1331.20;;;;;;5072621;28;20028;-57
2020/12/30 08:55:18;;;;;;;9.18;4.63;;;384.50;1356.80;;;;;;5073070;28;20029;-58
2020/12/30 08:57:48;;;;;;;12.48;5.05;;;384.50;1356.80;;;;;;5072643;28;20028;-57
2020/12/30 09:00:18;;;;;;;10.57;4.38;;;384.60;1356.80;;;;;;5072382;28;20016;-57
2020/12/30 09:02:45;;;;;;;15.13;6.07;;;384.40;1356.80;;;;;;5072564;28;20058;-57
2020/12/30 09:05:11;;;;;;;12.27;4.60;;;384.30;1356.80;;;;;;5072413;28;20025;-57
2020/12/30 09:07:39;;;;;;;15.77;4.72;;;384.50;1356.80;;;;;;5072477;28;20029;-58
2020/12/30 09:10:04;;;;;;;12.07;6.07;;;384.50;1382.40;;;;;;5072577;28;20386;-57
2020/12/30 09:12:30;;;;;;;15.05;5.50;;;384.50;1408.00;;;;;;5072562;28;20016;-57
2020/12/30 09:14:56;;;;;;;11.25;5.57;;;384.30;1408.00;;;;;;5072684;28;20035;-57
2020/12/30 09:17:22;;;;;;;16.05;6.57;;;384.30;1433.60;;;;;;5072289;28;20031;-56
2020/12/30 09:19:48;;;;;;;12.68;6.45;;;384.40;1408.00;;;;;;5072342;28;20100;-56
2020/12/30 09:22:14;;;;;;;13.75;5.60;;;384.50;1433.60;;;;;;5072210;28;20048;-57
2020/12/30 09:24:41;;;;;;;10.40;5.53;;;384.50;1433.60;;;;;;5072762;28;20025;-56
2020/12/30 09:27:21;;;;;;;12.02;5.65;;;384.50;1433.60;;;;;;5072167;28;20028;-57
2020/12/30 09:30:05;;;;;;;11.73;4.85;;;384.60;1459.20;;;;;;5060215;28;20369;-56
2020/12/30 09:32:30;;;;;;;20.40;12.48;;;384.50;1459.20;;;;;;5072581;28;20031;-57
2020/12/30 09:35:07;;;;;;;15.20;10.45;;;384.40;1459.20;;;;;;5072200;28;20367;-56
2020/12/30 09:37:33;;;;;;;11.55;6.38;;;384.40;1510.40;;;;;;5072337;28;20032;-58
2020/12/30 09:40:15;;;;;;;13.15;7.05;;;384.30;1484.80;;;;;;5071354;28;20355;-57
2020/12/30 09:42:42;;;;;;;13.25;6.63;;;384.40;1536.00;;;;;;5072294;28;20029;-57
2020/12/30 09:45:13;;;;;;;12.98;6.50;;;384.60;1484.80;;;;;;5072116;28;20046;-57
2020/12/30 09:47:40;;;;;;;12.57;6.55;;;384.70;1484.80;;;;;;5072083;28;20028;-56
2020/12/30 09:50:08;;;;;;;26.98;15.15;;;384.80;1484.80;;;;;;5072269;28;20047;-56
2020/12/30 09:52:38;;;;;;;17.42;8.88;;;384.80;1459.20;;;;;;5072090;28;20035;-57
2020/12/30 09:55:06;;;;;;;14.93;7.15;;;384.90;1459.20;;;;;;5072146;28;20033;-56
2020/12/30 09:57:32;;;;;;;14.60;8.07;;;409.60;1459.20;;;;;;5072309;28;20406;-56
2020/12/30 09:59:59;;;;;;;10.98;6.75;;;409.70;1459.20;;;;;;5072109;28;20033;-56
2020/12/30 10:02:25;;;;;;;15.15;7.13;;;409.70;1484.80;;;;;;5071894;28;20419;-58
2020/12/30 10:04:51;;;;;;;17.45;6.88;;;409.70;1433.60;;;;;;5071859;28;20078;-56
2020/12/30 10:07:17;;;;;;;11.93;6.68;;;409.70;1459.20;;;;;;5071905;28;20072;-56
2020/12/30 10:09:42;;;;;;;14.18;7.43;;;384.90;1459.20;;;;;;5072109;28;20028;-56
2020/12/30 10:12:08;;;;;;;15.13;7.05;;;409.60;1484.80;;;;;;5074077;28;20470;-56
2020/12/30 10:14:34;;;;;;;12.60;5.88;;;409.60;1433.60;;;;;;5076004;28;20028;-56
2020/12/30 10:17:00;;;;;;;15.55;7.18;;;409.60;1459.20;;;;;;5075735;28;20035;-57
2020/12/30 10:19:26;;;;;;;10.77;6.35;;;409.60;1433.60;;;;;;5075799;28;20028;-57
2020/12/30 10:21:51;;;;;;;16.00;7.95;;;409.70;1433.60;;;;;;5075731;28;20032;-56
2020/12/30 10:24:17;;;;;;;12.38;6.35;;;409.70;1408.00;;;;;;5076028;28;20032;-56
2020/12/30 10:26:43;;;;;;;16.35;6.93;;;409.60;1459.20;;;;;;5075652;28;20047;-57
2020/12/30 10:29:08;;;;;;;15.55;6.88;;;384.90;1408.00;;;;;;5075852;28;20047;-57
2020/12/30 10:31:34;;;;;;;14.57;6.22;;;384.80;1433.60;;;;;;5075499;28;20106;-55
2020/12/30 10:34:00;;;;;;;13.18;6.20;;;384.80;1433.60;;;;;;5075519;28;20017;-56
2020/12/30 10:36:32;;;;;;;14.50;7.72;;;384.90;1433.60;;;;;;5057237;28;20036;-56
2020/12/30 10:39:01;;;;;;;15.35;5.75;;;384.70;1484.80;;;;;;5073156;28;20493;-57
2020/12/30 10:41:28;;;;;;;15.02;6.80;;;384.80;1459.20;;;;;;5075275;28;20020;-57
2020/12/30 10:43:53;;;;;;;11.73;6.25;;;384.70;1510.40;;;;;;5075793;28;20039;-57
2020/12/30 10:46:19;;;;;;;11.95;6.75;;;384.50;1536.00;;;;;;5075397;28;20028;-56
2020/12/30 10:48:47;;;;;;;12.75;7.28;;;384.50;1561.60;;;;;;5075417;28;20549;-60
2020/12/30 10:51:14;;;;;;;14.35;6.75;;;384.50;1612.80;;;;;;5075235;28;20036;-58
2020/12/30 10:53:40;;;;;;;12.50;6.20;;;384.50;1638.40;;;;;;5075209;28;20027;-57
2020/12/30 10:56:08;;;;;;;13.73;6.10;;;384.40;1612.80;;;;;;5075574;28;20130;-57
2020/12/30 10:58:34;;;;;;;11.48;6.13;;;384.30;1612.80;;;;;;5075696;28;20055;-57
2020/12/30 11:01:00;;;;;;;10.07;5.82;;;384.20;1664.00;;;;;;5074983;28;20429;-56
2020/12/30 11:03:25;;;;;;;15.20;5.85;;;384.00;1689.60;;;;;;5075113;28;20056;-57
2020/12/30 11:05:51;;;;;;;12.25;7.10;;;384.10;1689.60;;;;;;5074436;28;20047;-56
2020/12/30 11:08:17;;;;;;;12.07;6.47;;;384.10;1689.60;;;;;;5074839;28;20056;-57
2020/12/30 11:10:43;;;;;;;13.38;6.63;;;384.00;1715.20;;;;;;5074946;28;20028;-57
2020/12/30 11:13:08;;;;;;;14.95;7.10;;;359.20;1740.80;;;;;;5074648;28;20029;-57
2020/12/30 11:15:35;;;;;;;12.95;7.15;;;359.20;1740.80;;;;;;5075428;28;20017;-57
2020/12/30 11:18:03;;;;;;;11.65;6.65;;;359.20;1740.80;;;;;;5074509;28;20119;-57
2020/12/30 11:20:29;;;;;;;13.05;7.03;;;359.20;1766.40;;;;;;5074564;28;20048;-56
2020/12/30 11:22:54;;;;;;;16.42;6.72;;;359.10;1766.40;;;;;;5074149;28;20406;-57
2020/12/30 11:25:20;;;;;;;11.57;5.88;;;359.10;1792.00;;;;;;5074760;28;20031;-57
2020/12/30 11:27:46;;;;;;;11.55;6.13;;;359.10;1817.60;;;;;;5074392;28;20032;-57
2020/12/30 11:30:11;;;;;;;18.25;7.10;;;359.10;1817.60;;;;;;5074607;28;20025;-56
2020/12/30 11:32:39;;;;;;;15.85;7.03;;;359.10;1843.20;;;;;;5074574;28;20021;-57
2020/12/30 11:35:05;;;;;;;15.48;6.50;;;359.10;1817.60;;;;;;5074454;28;20107;-57
2020/12/30 11:37:31;;;;;;;16.27;6.28;;;359.10;1817.60;;;;;;5074803;28;20111;-57
2020/12/30 11:39:56;;;;;;;14.48;7.05;;;359.00;1843.20;;;;;;5074231;28;20359;-57
2020/12/30 11:42:22;;;;;;;18.23;6.75;;;359.10;1868.80;;;;;;5074151;28;20664;-56
2020/12/30 11:44:48;;;;;;;14.07;6.78;;;359.10;1843.20;;;;;;5074259;28;20028;-57
2020/12/30 11:47:13;;;;;;;13.05;6.43;;;359.20;1843.20;;;;;;5074289;28;20524;-57
2020/12/30 11:49:39;;;;;;;17.40;6.32;;;359.10;1843.20;;;;;;5074595;28;20048;-57
2020/12/30 11:52:05;;;;;;;15.52;7.22;;;359.00;1817.60;;;;;;5073703;28;20055;-57
2020/12/30 11:54:30;;;;;;;13.23;6.47;;;359.00;1843.20;;;;;;5074257;28;20032;-57
2020/12/30 11:56:56;;;;;;;11.20;5.90;;;358.90;1868.80;;;;;;5073903;28;20458;-58
2020/12/30 11:59:22;;;;;;;13.98;7.60;;;358.80;1868.80;;;;;;5073986;28;20020;-57
2020/12/30 12:01:47;;;;;;;11.00;7.53;;;358.80;1894.40;;;;;;5073835;28;20030;-57
2020/12/30 12:04:13;;;;;;;11.63;6.53;;;358.80;1894.40;;;;;;5073859;28;20467;-57
2020/12/30 12:06:39;;;;;;;13.75;6.93;;;358.70;1894.40;;;;;;5073534;28;20044;-56
2020/12/30 12:09:05;;;;;;;15.80;7.45;;;358.70;1920.00;;;;;;5073443;28;20074;-56
2020/12/30 12:11:30;;;;;;;11.25;6.15;;;358.70;1920.00;;;;;;5073743;28;20040;-57
2020/12/30 12:13:56;;;;;;;13.63;7.85;;;358.60;1920.00;;;;;;5073539;28;20095;-57
2020/12/30 12:16:22;;;;;;;17.70;6.65;;;358.70;1920.00;;;;;;5072857;28;20024;-57